Time;durP1;ratioP1;P1;durP2;ratioP2;P2;SDS_P1;SDS_P2;PMS_P1;PMS_P2;Temp;Humidity;BMP_temperature;BMP_pressure;BME280_temperature;BME280_humidity;BME280_pressure;Samples;Min_cycle;Max_cycle;Signal;HPM_P1;HPM_P2
2022/10/09 00:00:34;;;;;;;13.27;4.00;;;9.30;92.50;;;;;;5015679;28;20193;-88
2022/10/09 00:03:00;;;;;;;8.83;3.30;;;9.30;92.60;;;;;;5016471;28;20171;-88
2022/10/09 00:05:26;;;;;;;12.40;4.07;;;9.30;92.60;;;;;;5015214;28;20179;-89
2022/10/09 00:07:52;;;;;;;19.17;4.37;;;9.30;92.70;;;;;;5015222;28;20184;-88
2022/10/09 00:10:18;;;;;;;17.00;4.07;;;9.30;92.80;;;;;;5016659;28;20220;-89
2022/10/09 00:12:44;;;;;;;12.13;4.03;;;9.30;92.80;;;;;;5020498;28;20173;-90
2022/10/09 00:15:10;;;;;;;22.63;4.67;;;9.30;92.80;;;;;;5021614;28;20212;-90
2022/10/09 00:17:35;;;;;;;30.87;5.03;;;9.30;92.80;;;;;;5016501;28;20640;-89
2022/10/09 00:20:02;;;;;;;21.27;5.30;;;9.30;92.80;;;;;;5016103;28;20556;-90
2022/10/09 00:22:27;;;;;;;18.77;5.50;;;9.30;92.80;;;;;;5015231;28;20174;-88
2022/10/09 00:24:53;;;;;;;16.30;4.83;;;9.30;92.80;;;;;;5014461;28;20177;-89
2022/10/09 00:27:21;;;;;;;19.03;4.80;;;9.30;92.80;;;;;;5015479;28;20193;-89
2022/10/09 00:29:47;;;;;;;13.97;3.57;;;9.30;92.80;;;;;;5014876;28;20209;-90
2022/10/09 00:32:12;;;;;;;15.47;4.30;;;9.30;92.80;;;;;;5015895;28;20188;-89
2022/10/09 00:34:50;;;;;;;18.77;4.17;;;9.30;92.90;;;;;;5015616;28;20621;-89
2022/10/09 00:37:16;;;;;;;18.07;4.73;;;9.30;92.90;;;;;;5013352;28;20659;-87
2022/10/09 00:39:42;;;;;;;27.47;4.77;;;9.50;92.90;;;;;;5014321;28;20252;-87
2022/10/09 00:42:13;;;;;;;21.53;5.20;;;9.50;92.90;;;;;;5013197;28;20200;-88
2022/10/09 00:44:46;;;;;;;21.50;5.10;;;9.60;92.80;;;;;;5013058;28;20183;-88
2022/10/09 00:47:32;;;;;;;22.17;4.83;;;9.70;92.80;;;;;;5013218;28;20254;-87
2022/10/09 00:50:19;;;;;;;11.70;4.20;;;9.70;92.80;;;;;;5012898;28;20695;-87
2022/10/09 00:52:45;;;;;;;18.13;4.77;;;9.70;92.80;;;;;;5014436;28;20181;-87
2022/10/09 00:55:13;;;;;;;12.97;4.20;;;9.70;92.70;;;;;;5014165;28;20671;-87
2022/10/09 00:57:40;;;;;;;15.30;3.83;;;9.60;92.70;;;;;;5014109;28;20176;-87
2022/10/09 01:00:09;;;;;;;15.30;3.83;;;9.50;92.70;;;;;;5012850;28;20239;-87
2022/10/09 01:02:35;;;;;;;23.73;4.40;;;9.50;92.80;;;;;;5013999;28;20260;-87
2022/10/09 01:05:00;;;;;;;15.63;4.77;;;9.50;92.80;;;;;;5014052;28;20217;-88
2022/10/09 01:07:55;;;;;;;20.80;4.83;;;9.50;92.80;;;;;;5013954;28;20231;-87
2022/10/09 01:10:30;;;;;;;18.43;4.23;;;9.50;92.80;;;;;;5012657;28;20748;-87
2022/10/09 01:13:15;;;;;;;12.70;4.90;;;9.50;92.80;;;;;;5012668;28;20180;-88
2022/10/09 01:15:54;;;;;;;15.60;5.40;;;9.60;92.80;;;;;;5012774;28;20260;-87
2022/10/09 01:18:28;;;;;;;12.50;4.20;;;9.60;92.80;;;;;;5014248;28;20158;-88
2022/10/09 01:21:01;;;;;;;19.60;4.30;;;9.70;92.80;;;;;;5013754;28;20201;-87
2022/10/09 01:23:42;;;;;;;14.00;4.80;;;9.70;92.70;;;;;;5012584;28;20177;-87
2022/10/09 01:26:14;;;;;;;21.00;4.30;;;9.70;92.70;;;;;;5012524;28;20267;-88
2022/10/09 01:28:44;;;;;;;14.00;3.90;;;9.70;92.60;;;;;;5013660;28;20153;-88
2022/10/09 01:31:12;;;;;;;14.47;3.77;;;9.70;92.50;;;;;;5012391;28;20197;-88
2022/10/09 01:33:38;;;;;;;17.67;4.27;;;9.70;92.40;;;;;;5013532;28;20213;-88
2022/10/09 01:36:05;;;;;;;16.73;3.83;;;9.70;92.40;;;;;;5012368;28;20268;-87
2022/10/09 01:38:32;;;;;;;10.33;3.93;;;9.70;92.40;;;;;;5012332;28;20177;-87
2022/10/09 01:40:59;;;;;;;17.43;4.73;;;9.80;92.40;;;;;;5012259;28;20192;-88
2022/10/09 01:43:24;;;;;;;23.93;4.30;;;9.70;92.40;;;;;;5012262;28;20231;-87
2022/10/09 01:45:50;;;;;;;13.33;5.00;;;9.70;92.40;;;;;;5012277;28;20181;-87
2022/10/09 01:48:22;;;;;;;16.17;3.97;;;9.70;92.50;;;;;;5012317;28;20494;-87
2022/10/09 01:50:54;;;;;;;14.57;5.00;;;9.80;92.50;;;;;;5012242;28;20675;-87
2022/10/09 01:53:22;;;;;;;12.07;4.97;;;9.80;92.50;;;;;;5013323;28;20276;-87
2022/10/09 01:56:09;;;;;;;16.23;5.13;;;9.70;92.50;;;;;;5012345;28;20218;-88
2022/10/09 01:58:42;;;;;;;11.80;4.60;;;9.80;92.50;;;;;;5017408;28;20169;-87
2022/10/09 02:01:21;;;;;;;10.10;3.97;;;9.70;92.50;;;;;;5016260;28;20182;-87
2022/10/09 02:03:50;;;;;;;11.07;4.23;;;9.70;92.50;;;;;;5017549;28;20544;-87
2022/10/09 02:06:17;;;;;;;10.07;3.90;;;9.60;92.40;;;;;;5016051;28;20226;-87
2022/10/09 02:08:46;;;;;;;17.57;4.20;;;9.50;92.30;;;;;;5017189;28;20182;-87
2022/10/09 02:11:16;;;;;;;18.83;4.63;;;9.50;92.30;;;;;;5015943;28;20660;-87
2022/10/09 02:13:43;;;;;;;15.43;4.33;;;9.50;92.30;;;;;;5017073;28;20201;-88
2022/10/09 02:16:40;;;;;;;14.37;4.40;;;9.40;92.30;;;;;;5017373;28;20628;-88
2022/10/09 02:19:20;;;;;;;13.27;3.63;;;9.30;92.40;;;;;;5008218;28;20278;-87
2022/10/09 02:21:53;;;;;;;13.27;4.50;;;9.30;92.50;;;;;;5017015;28;20253;-87
2022/10/09 02:24:21;;;;;;;15.97;4.43;;;9.30;92.60;;;;;;5015729;28;20173;-87
2022/10/09 02:26:46;;;;;;;10.37;4.07;;;9.40;92.60;;;;;;5016915;28;20184;-87
2022/10/09 02:29:13;;;;;;;12.93;4.20;;;9.30;92.60;;;;;;5016805;28;20201;-87
2022/10/09 02:31:41;;;;;;;13.80;4.60;;;9.30;92.70;;;;;;5015665;28;20181;-88
2022/10/09 02:34:09;;;;;;;14.73;4.57;;;9.20;92.60;;;;;;5015526;28;20300;-87
2022/10/09 02:36:35;;;;;;;15.00;5.70;;;9.20;92.70;;;;;;5015611;28;20181;-88
2022/10/09 02:39:02;;;;;;;19.97;5.23;;;9.20;92.80;;;;;;5016643;28;20193;-88
2022/10/09 02:41:28;;;;;;;13.20;3.83;;;9.20;92.80;;;;;;5016576;28;20178;-87
2022/10/09 02:43:53;;;;;;;16.80;4.90;;;9.10;92.90;;;;;;5016886;28;20194;-87
2022/10/09 02:46:19;;;;;;;14.60;4.80;;;9.10;92.90;;;;;;5015330;28;20177;-88
2022/10/09 02:48:45;;;;;;;16.97;5.40;;;9.00;92.90;;;;;;5016485;28;20173;-87
2022/10/09 02:51:11;;;;;;;15.97;4.77;;;9.00;92.80;;;;;;5016476;28;20257;-87
2022/10/09 02:53:37;;;;;;;15.20;4.73;;;9.00;92.80;;;;;;5015174;28;20679;-87
2022/10/09 02:56:02;;;;;;;17.83;5.07;;;9.00;92.80;;;;;;5015228;28;20173;-87
2022/10/09 02:58:33;;;;;;;14.03;4.70;;;8.90;92.80;;;;;;5015103;28;20180;-87
2022/10/09 03:00:58;;;;;;;19.80;5.27;;;8.90;92.80;;;;;;5015426;28;20199;-87
2022/10/09 03:03:24;;;;;;;15.87;4.93;;;8.90;92.80;;;;;;5041951;22;20284;-91
2022/10/09 03:06:01;;;;;;;13.83;5.43;;;8.90;92.80;;;;;;5018681;28;20558;-91
2022/10/09 03:08:27;;;;;;;10.80;5.50;;;8.90;92.80;;;;;;5016552;28;20208;-91
2022/10/09 03:10:52;;;;;;;12.27;4.50;;;8.80;92.80;;;;;;5017404;28;20660;-92
2022/10/09 03:13:18;;;;;;;22.03;5.37;;;8.80;92.80;;;;;;5018101;28;22118;-91
2022/10/09 03:15:44;;;;;;;12.60;4.87;;;8.80;92.90;;;;;;5017806;28;20177;-92
2022/10/09 03:18:09;;;;;;;18.50;5.07;;;8.70;92.90;;;;;;5017258;28;20181;-92
2022/10/09 03:20:36;;;;;;;10.53;5.20;;;8.70;92.90;;;;;;5017926;28;20170;-91
2022/10/09 03:23:01;;;;;;;16.00;5.00;;;8.70;92.90;;;;;;5017864;28;20217;-92
2022/10/09 03:25:27;;;;;;;10.33;4.87;;;8.70;92.90;;;;;;5017883;28;20180;-92
2022/10/09 03:27:52;;;;;;;15.37;4.97;;;8.60;92.90;;;;;;5018710;28;20250;-91
2022/10/09 03:30:18;;;;;;;15.90;4.93;;;8.60;92.90;;;;;;5017736;28;20627;-92
2022/10/09 03:32:44;;;;;;;16.73;5.40;;;8.60;92.90;;;;;;5017781;28;20184;-92
2022/10/09 03:35:09;;;;;;;15.00;4.57;;;8.60;92.90;;;;;;5016661;28;20209;-92
2022/10/09 03:37:35;;;;;;;14.73;4.50;;;8.60;92.90;;;;;;5017126;28;20213;-91
2022/10/09 03:40:00;;;;;;;18.60;4.83;;;8.60;92.90;;;;;;5017720;28;20204;-92
2022/10/09 03:42:26;;;;;;;14.17;4.63;;;8.50;92.90;;;;;;5017484;28;20226;-92
2022/10/09 03:44:51;;;;;;;17.83;5.27;;;8.50;92.90;;;;;;5017549;28;20197;-92
2022/10/09 03:47:17;;;;;;;17.60;5.20;;;8.40;92.90;;;;;;5017258;28;20682;-92
2022/10/09 03:49:43;;;;;;;14.73;4.93;;;8.40;93.00;;;;;;5016830;28;20276;-92
2022/10/09 03:52:08;;;;;;;14.97;5.47;;;8.50;93.10;;;;;;5016920;28;20215;-91
2022/10/09 03:54:34;;;;;;;22.40;4.93;;;8.50;93.00;;;;;;5016631;28;20208;-92
2022/10/09 03:57:00;;;;;;;14.37;4.23;;;8.50;93.10;;;;;;5015805;28;20173;-92
2022/10/09 03:59:25;;;;;;;17.17;5.57;;;8.50;93.10;;;;;;5016407;28;20307;-92
2022/10/09 04:01:51;;;;;;;15.77;5.47;;;8.50;93.10;;;;;;5015899;28;20178;-92
2022/10/09 04:04:16;;;;;;;21.70;6.57;;;8.60;93.00;;;;;;5015952;28;20220;-92
2022/10/09 04:06:42;;;;;;;19.37;7.27;;;8.50;92.90;;;;;;5016184;28;20185;-92
2022/10/09 04:09:08;;;;;;;20.80;5.20;;;8.50;92.90;;;;;;5015368;28;20213;-92
2022/10/09 04:11:34;;;;;;;14.57;4.63;;;8.40;92.70;;;;;;5015146;28;20200;-92
2022/10/09 04:14:00;;;;;;;11.40;4.10;;;8.50;92.80;;;;;;5015073;28;20243;-92
2022/10/09 04:16:26;;;;;;;17.60;4.17;;;8.50;92.80;;;;;;5014906;28;20217;-92
2022/10/09 04:18:51;;;;;;;11.57;4.47;;;8.40;92.70;;;;;;5014578;28;20184;-92
2022/10/09 04:21:17;;;;;;;12.43;3.20;;;8.30;92.60;;;;;;5014706;28;20181;-92
2022/10/09 04:23:42;;;;;;;14.13;4.13;;;8.30;92.50;;;;;;5015117;28;20205;-92
2022/10/09 04:26:11;;;;;;;9.87;3.93;;;8.20;92.40;;;;;;5014516;28;20212;-92
2022/10/09 04:28:36;;;;;;;14.60;4.57;;;8.10;92.40;;;;;;5014447;28;20589;-92
2022/10/09 04:31:03;;;;;;;16.70;4.97;;;8.00;92.30;;;;;;5014328;28;20181;-92
2022/10/09 04:33:28;;;;;;;14.03;4.90;;;7.90;92.30;;;;;;5014632;28;20209;-92
2022/10/09 04:35:55;;;;;;;15.37;4.30;;;8.00;92.50;;;;;;5014457;28;20183;-92
2022/10/09 04:38:22;;;;;;;12.97;4.70;;;8.00;92.50;;;;;;5014272;28;20188;-92
2022/10/09 04:41:02;;;;;;;12.70;4.50;;;8.00;92.40;;;;;;5014178;28;20178;-92
2022/10/09 04:43:28;;;;;;;10.20;4.43;;;8.10;92.50;;;;;;5014081;28;20209;-92
2022/10/09 04:45:54;;;;;;;14.53;4.63;;;8.00;92.30;;;;;;5014404;28;20272;-92
2022/10/09 04:48:20;;;;;;;18.40;6.03;;;7.90;92.20;;;;;;5014084;28;20659;-92
2022/10/09 04:50:46;;;;;;;14.43;4.50;;;7.90;92.30;;;;;;5014191;28;20184;-92
2022/10/09 04:53:11;;;;;;;15.57;4.77;;;7.80;92.20;;;;;;5014086;28;20205;-92
2022/10/09 04:55:41;;;;;;;24.23;5.30;;;7.80;92.20;;;;;;5014075;28;20216;-91
2022/10/09 04:58:08;;;;;;;15.50;5.73;;;7.80;92.30;;;;;;5013805;28;20594;-92
2022/10/09 05:00:38;;;;;;;12.90;4.90;;;7.70;92.30;;;;;;5013961;28;20178;-92
2022/10/09 05:03:04;;;;;;;11.10;4.93;;;7.70;92.20;;;;;;5013698;28;20628;-92
2022/10/09 05:05:31;;;;;;;21.17;4.80;;;7.70;92.20;;;;;;5014049;28;20165;-92
2022/10/09 05:07:57;;;;;;;13.20;4.93;;;7.70;92.30;;;;;;5013989;28;20201;-92
2022/10/09 05:10:22;;;;;;;13.33;5.07;;;7.50;92.20;;;;;;5013938;28;20648;-92
2022/10/09 05:12:48;;;;;;;14.83;5.90;;;7.60;92.30;;;;;;5014273;28;20192;-92
2022/10/09 05:15:14;;;;;;;18.40;8.47;;;7.70;92.30;;;;;;5013576;28;20204;-92
2022/10/09 05:17:39;;;;;;;22.27;7.87;;;7.70;92.30;;;;;;5014310;28;20180;-92
2022/10/09 05:20:05;;;;;;;14.20;7.07;;;7.70;92.20;;;;;;5014575;28;20647;-92
2022/10/09 05:22:31;;;;;;;11.83;6.07;;;7.70;92.20;;;;;;5013738;28;20272;-92
2022/10/09 05:24:56;;;;;;;14.90;7.10;;;7.70;92.10;;;;;;5013131;28;20236;-90
2022/10/09 05:27:22;;;;;;;10.40;4.67;;;7.60;91.90;;;;;;5014026;28;20581;-91
2022/10/09 05:29:47;;;;;;;13.30;5.33;;;7.50;91.90;;;;;;5013310;28;20181;-92
2022/10/09 05:32:13;;;;;;;17.47;5.23;;;7.40;92.00;;;;;;5012732;28;20260;-91
2022/10/09 05:34:39;;;;;;;22.63;5.90;;;7.50;92.10;;;;;;5012928;28;20552;-92
2022/10/09 05:37:05;;;;;;;11.90;5.63;;;7.40;92.10;;;;;;5013021;28;20177;-92
2022/10/09 05:39:31;;;;;;;14.27;5.47;;;7.40;92.30;;;;;;5012981;28;20176;-92
2022/10/09 05:41:57;;;;;;;13.70;6.33;;;7.40;92.40;;;;;;5012803;28;20643;-92
2022/10/09 05:44:23;;;;;;;20.90;6.33;;;7.40;92.50;;;;;;5013164;28;20205;-91
2022/10/09 05:46:48;;;;;;;13.27;5.70;;;7.30;92.70;;;;;;5013080;28;20573;-92
2022/10/09 05:49:14;;;;;;;19.20;6.43;;;7.30;92.80;;;;;;5013022;28;20339;-91
2022/10/09 05:51:41;;;;;;;14.63;6.37;;;7.30;92.90;;;;;;5013040;28;20181;-92
2022/10/09 05:54:11;;;;;;;15.77;7.07;;;7.30;93.00;;;;;;5013122;28;20208;-92
2022/10/09 05:56:38;;;;;;;19.30;7.10;;;7.40;92.90;;;;;;5013528;28;20644;-92
2022/10/09 05:59:06;;;;;;;22.07;6.83;;;7.30;92.90;;;;;;5013062;28;20205;-92
2022/10/09 06:01:33;;;;;;;14.17;5.83;;;7.30;92.90;;;;;;5012636;28;20177;-92
2022/10/09 06:04:00;;;;;;;19.43;6.70;;;7.20;92.90;;;;;;5012550;28;20244;-91
2022/10/09 06:06:30;;;;;;;16.37;5.73;;;7.30;92.90;;;;;;5012501;28;20522;-92
2022/10/09 06:08:57;;;;;;;13.13;5.43;;;7.20;92.80;;;;;;5012397;28;20199;-92
2022/10/09 06:11:27;;;;;;;17.30;6.37;;;7.20;92.90;;;;;;5012254;28;20177;-92
2022/10/09 06:13:54;;;;;;;17.97;6.37;;;7.20;92.80;;;;;;5012133;28;20205;-91
2022/10/09 06:16:23;;;;;;;15.77;6.23;;;7.20;92.90;;;;;;5012561;28;20640;-92
2022/10/09 06:18:49;;;;;;;11.60;6.20;;;7.30;92.80;;;;;;5013308;28;20181;-91
2022/10/09 06:21:15;;;;;;;10.87;6.50;;;7.20;92.90;;;;;;5013050;28;20173;-91
2022/10/09 06:23:41;;;;;;;20.17;7.13;;;7.30;92.90;;;;;;5015219;28;20189;-92
2022/10/09 06:26:12;;;;;;;16.47;5.70;;;7.30;92.90;;;;;;5013068;28;20239;-90
2022/10/09 06:28:39;;;;;;;14.47;6.30;;;7.30;92.80;;;;;;5015693;28;20185;-92
2022/10/09 06:31:17;;;;;;;11.53;5.80;;;7.30;92.90;;;;;;5013112;28;20185;-91
2022/10/09 06:33:44;;;;;;;14.53;6.00;;;7.30;92.90;;;;;;5013678;28;20683;-92
2022/10/09 06:36:17;;;;;;;16.10;6.57;;;7.30;92.80;;;;;;5014075;28;20169;-91
2022/10/09 06:38:43;;;;;;;16.77;6.33;;;7.20;92.80;;;;;;5013047;28;20241;-91
2022/10/09 06:41:12;;;;;;;17.77;6.47;;;7.30;92.90;;;;;;5013695;28;20216;-92
2022/10/09 06:43:38;;;;;;;10.10;5.87;;;7.30;93.00;;;;;;5016544;28;20205;-92
2022/10/09 06:46:07;;;;;;;12.70;6.00;;;7.20;92.90;;;;;;5017217;28;20185;-91
2022/10/09 06:48:34;;;;;;;17.17;6.50;;;7.30;93.00;;;;;;5017531;28;20189;-92
2022/10/09 06:51:20;;;;;;;20.83;7.23;;;7.30;93.10;;;;;;5017165;28;20635;-92
2022/10/09 06:53:49;;;;;;;20.43;6.67;;;7.40;93.20;;;;;;5017814;28;20262;-92
2022/10/09 06:56:16;;;;;;;17.77;7.37;;;7.40;93.30;;;;;;5017676;28;20181;-91
2022/10/09 06:58:42;;;;;;;16.77;7.40;;;7.50;93.40;;;;;;5018751;28;20184;-91
2022/10/09 07:01:16;;;;;;;14.63;7.90;;;7.50;93.50;;;;;;5017758;28;20181;-92
2022/10/09 07:03:45;;;;;;;20.23;7.40;;;7.50;93.60;;;;;;5016812;28;20223;-92
2022/10/09 07:06:49;;;;;;;17.13;8.47;;;7.60;93.70;;;;;;5018200;28;20762;-91
2022/10/09 07:09:15;;;;;;;12.53;7.57;;;7.60;93.70;;;;;;5007751;28;20189;-92
2022/10/09 07:11:44;;;;;;;16.60;8.17;;;7.70;93.80;;;;;;5018015;28;20187;-92
2022/10/09 07:14:11;;;;;;;18.03;8.93;;;7.70;93.80;;;;;;5016570;28;20201;-91
2022/10/09 07:16:39;;;;;;;17.83;8.27;;;7.80;94.00;;;;;;5016331;28;20181;-91
2022/10/09 07:19:10;;;;;;;13.57;7.67;;;7.90;94.00;;;;;;5017093;28;20173;-92
2022/10/09 07:21:37;;;;;;;19.43;9.20;;;8.00;94.00;;;;;;5015702;28;20636;-92
2022/10/09 07:24:04;;;;;;;18.93;9.47;;;8.00;94.10;;;;;;5015534;28;20201;-92
2022/10/09 07:26:32;;;;;;;19.57;9.07;;;8.10;94.10;;;;;;5016977;28;20538;-92
2022/10/09 07:28:57;;;;;;;18.57;9.07;;;8.10;94.00;;;;;;5017573;28;20618;-91
2022/10/09 07:31:23;;;;;;;18.97;10.07;;;8.20;94.10;;;;;;5017932;28;20185;-92
2022/10/09 07:33:51;;;;;;;22.80;10.03;;;8.30;94.10;;;;;;5016490;28;20205;-91
2022/10/09 07:36:17;;;;;;;20.87;10.10;;;8.30;94.10;;;;;;5016501;28;20181;-91
2022/10/09 07:38:43;;;;;;;21.93;9.37;;;8.40;94.00;;;;;;5016758;28;20183;-91
2022/10/09 07:41:11;;;;;;;25.63;9.00;;;8.40;94.00;;;;;;5016573;28;20193;-91
2022/10/09 07:43:38;;;;;;;23.47;10.07;;;8.50;93.90;;;;;;5016941;28;20197;-92
2022/10/09 07:46:06;;;;;;;21.37;9.07;;;8.60;93.90;;;;;;5016278;28;20182;-91
2022/10/09 07:48:34;;;;;;;19.23;9.80;;;8.70;94.00;;;;;;5016745;28;20178;-91
2022/10/09 07:51:25;;;;;;;23.63;10.60;;;8.70;93.90;;;;;;5016670;28;20212;-91
2022/10/09 07:53:51;;;;;;;20.87;10.77;;;8.70;93.80;;;;;;5015721;28;20281;-91
2022/10/09 07:56:28;;;;;;;20.70;10.17;;;8.80;93.80;;;;;;5016099;28;20181;-91
2022/10/09 07:58:57;;;;;;;27.20;9.80;;;8.90;93.80;;;;;;5018756;28;20166;-91
2022/10/09 08:01:23;;;;;;;22.37;9.47;;;8.90;93.70;;;;;;5019886;28;20232;-91
2022/10/09 08:03:49;;;;;;;17.47;8.87;;;9.10;93.70;;;;;;5019401;28;20268;-92
2022/10/09 08:06:16;;;;;;;24.77;10.20;;;9.10;93.50;;;;;;5018957;28;20219;-92
2022/10/09 08:08:42;;;;;;;19.53;9.57;;;9.10;93.30;;;;;;5016869;28;20243;-91
2022/10/09 08:11:10;;;;;;;20.57;9.63;;;9.20;93.20;;;;;;5018528;28;20213;-91
2022/10/09 08:13:36;;;;;;;20.97;9.77;;;9.30;93.10;;;;;;5018067;28;20205;-92
2022/10/09 08:16:02;;;;;;;23.97;9.53;;;9.40;93.10;;;;;;5018007;28;20177;-91
2022/10/09 08:18:27;;;;;;;15.53;10.43;;;9.40;92.90;;;;;;5018722;28;20184;-92
2022/10/09 08:21:01;;;;;;;17.43;10.10;;;9.50;92.80;;;;;;5019422;28;20247;-92
2022/10/09 08:23:27;;;;;;;17.83;10.23;;;9.60;92.90;;;;;;5020762;28;20197;-92
2022/10/09 08:25:53;;;;;;;21.77;10.30;;;9.70;92.80;;;;;;5020722;28;20216;-92
2022/10/09 08:28:19;;;;;;;18.30;9.53;;;9.80;92.70;;;;;;5021667;28;20177;-92
2022/10/09 08:30:45;;;;;;;17.83;10.07;;;9.90;92.60;;;;;;5021883;28;20228;-92
2022/10/09 08:33:10;;;;;;;18.73;9.47;;;10.00;92.60;;;;;;5021850;28;20197;-92
2022/10/09 08:35:36;;;;;;;16.93;9.40;;;10.00;92.50;;;;;;5024020;28;20261;-92
2022/10/09 08:38:02;;;;;;;14.80;9.17;;;10.10;92.40;;;;;;5025033;28;20255;-92
2022/10/09 08:40:39;;;;;;;19.10;9.37;;;10.20;92.30;;;;;;5024399;28;20200;-92
2022/10/09 08:43:09;;;;;;;16.27;9.23;;;10.20;91.90;;;;;;5023589;28;20184;-92
2022/10/09 08:45:39;;;;;;;17.43;8.87;;;10.20;91.80;;;;;;5023189;28;20176;-92
2022/10/09 08:48:19;;;;;;;16.33;9.40;;;10.30;91.80;;;;;;5022156;28;20169;-92
2022/10/09 08:50:49;;;;;;;16.93;8.87;;;10.40;91.80;;;;;;5023255;28;20170;-92
2022/10/09 08:53:37;;;;;;;14.63;7.97;;;10.50;91.40;;;;;;5024410;28;20197;-92
2022/10/09 08:56:04;;;;;;;16.03;8.87;;;10.60;91.50;;;;;;5022214;28;20165;-92
2022/10/09 08:58:33;;;;;;;17.73;8.43;;;10.80;91.40;;;;;;5023471;28;20640;-92
2022/10/09 09:01:24;;;;;;;17.77;8.57;;;10.80;90.90;;;;;;5019830;28;20178;-91
2022/10/09 09:04:28;;;;;;;18.80;8.83;;;11.00;90.70;;;;;;5069911;23;20632;-86
2022/10/09 09:07:18;;;;;;;18.40;7.63;;;11.00;90.40;;;;;;4993350;28;20720;-85
2022/10/09 09:09:56;;;;;;;19.77;7.70;;;11.20;90.60;;;;;;4993625;28;20206;-85
2022/10/09 09:12:49;;;;;;;16.33;7.50;;;11.50;90.90;;;;;;4995286;28;20174;-86
2022/10/09 09:15:24;;;;;;;18.00;7.30;;;11.50;90.40;;;;;;4993259;28;20220;-86
2022/10/09 09:17:56;;;;;;;14.50;7.40;;;11.60;90.10;;;;;;4993506;28;20169;-86
2022/10/09 09:20:35;;;;;;;17.00;7.27;;;11.60;89.50;;;;;;4993508;28;20642;-86
2022/10/09 09:23:01;;;;;;;14.47;5.83;;;11.70;89.50;;;;;;4993336;28;20172;-85
2022/10/09 09:25:35;;;;;;;14.60;5.60;;;11.90;88.70;;;;;;4994817;28;20566;-86
2022/10/09 09:28:33;;;;;;;14.53;5.50;;;12.10;88.40;;;;;;4994519;28;20172;-86
2022/10/09 09:31:26;;;;;;;16.73;4.97;;;12.00;87.60;;;;;;4993285;28;20178;-86
2022/10/09 09:34:13;;;;;;;13.13;5.03;;;12.20;87.60;;;;;;4994053;28;20226;-86
2022/10/09 09:36:54;;;;;;;14.13;4.67;;;12.30;86.90;;;;;;4993481;28;20170;-86
2022/10/09 09:39:23;;;;;;;14.27;4.73;;;12.50;86.70;;;;;;4993306;28;20254;-85
2022/10/09 09:41:54;;;;;;;15.63;4.47;;;12.50;85.70;;;;;;4994199;28;20175;-85
2022/10/09 09:44:20;;;;;;;15.67;5.43;;;12.60;85.40;;;;;;4994192;28;20189;-85
2022/10/09 09:46:47;;;;;;;13.77;4.83;;;12.60;85.40;;;;;;4992810;28;20177;-85
2022/10/09 09:49:19;;;;;;;13.13;4.70;;;12.80;85.10;;;;;;4994099;28;20170;-85
2022/10/09 09:51:47;;;;;;;11.60;4.00;;;12.90;85.00;;;;;;4992664;28;20652;-85
2022/10/09 09:54:25;;;;;;;12.07;4.10;;;13.00;84.80;;;;;;4992576;28;20218;-85
2022/10/09 09:56:53;;;;;;;10.37;3.70;;;13.00;84.80;;;;;;4992991;28;20663;-85
2022/10/09 09:59:36;;;;;;;11.63;4.27;;;13.20;84.40;;;;;;4992675;28;20170;-85
2022/10/09 10:02:31;;;;;;;11.30;3.50;;;13.20;84.30;;;;;;4993865;28;20173;-86
2022/10/09 10:05:08;;;;;;;9.90;3.50;;;13.20;83.50;;;;;;4993874;28;20707;-86
2022/10/09 10:07:36;;;;;;;10.00;3.47;;;13.30;83.20;;;;;;4994662;28;20165;-84
2022/10/09 10:10:17;;;;;;;10.10;3.53;;;13.10;82.80;;;;;;4992972;28;20223;-84
2022/10/09 10:12:53;;;;;;;10.70;3.50;;;13.20;82.90;;;;;;4994751;28;20217;-85
2022/10/09 10:15:30;;;;;;;11.97;4.10;;;13.30;82.60;;;;;;4992676;28;20696;-84
2022/10/09 10:18:00;;;;;;;13.23;3.30;;;13.50;83.10;;;;;;4994971;28;20177;-84
2022/10/09 10:20:29;;;;;;;10.47;3.63;;;13.50;82.20;;;;;;4998003;28;20694;-85
2022/10/09 10:22:57;;;;;;;13.03;4.13;;;13.60;81.80;;;;;;4997596;28;20193;-85
2022/10/09 10:25:30;;;;;;;9.20;3.83;;;13.50;81.90;;;;;;4997354;28;20260;-85
2022/10/09 10:28:14;;;;;;;8.37;3.67;;;13.50;82.00;;;;;;4999257;28;20172;-86
2022/10/09 10:30:41;;;;;;;13.07;3.73;;;13.70;82.40;;;;;;4998967;28;20167;-85
2022/10/09 10:33:20;;;;;;;10.70;3.60;;;13.80;81.50;;;;;;4997035;28;20174;-86
2022/10/09 10:35:50;;;;;;;10.00;3.20;;;13.80;81.30;;;;;;4997190;28;20174;-84
2022/10/09 10:38:39;;;;;;;14.40;3.97;;;13.80;80.80;;;;;;4997967;28;20198;-84
2022/10/09 10:41:14;;;;;;;10.07;2.77;;;13.80;80.40;;;;;;4996907;28;20540;-84
2022/10/09 10:43:42;;;;;;;10.00;2.73;;;13.90;80.50;;;;;;4998326;28;20662;-84
2022/10/09 10:46:31;;;;;;;8.87;3.00;;;14.00;80.20;;;;;;4997290;28;20229;-85
2022/10/09 10:48:58;;;;;;;12.07;3.87;;;14.30;79.70;;;;;;4996626;28;20178;-86
2022/10/09 10:52:02;;;;;;;10.57;3.00;;;14.20;80.00;;;;;;4996227;28;20178;-84
2022/10/09 10:54:52;;;;;;;13.20;3.50;;;14.30;78.80;;;;;;4997392;28;20220;-84
2022/10/09 10:57:26;;;;;;;11.57;2.97;;;14.20;79.50;;;;;;4997943;28;20158;-85
2022/10/09 11:00:06;;;;;;;7.60;3.53;;;13.90;79.00;;;;;;4996053;28;20258;-84
2022/10/09 11:02:43;;;;;;;12.87;3.80;;;14.00;79.90;;;;;;4997329;28;20739;-85
2022/10/09 11:05:28;;;;;;;10.33;3.23;;;14.30;79.20;;;;;;4997368;28;20692;-84
2022/10/09 11:08:12;;;;;;;9.97;2.83;;;14.40;78.50;;;;;;4996223;28;20629;-86
2022/10/09 11:10:49;;;;;;;10.17;2.90;;;14.40;77.60;;;;;;4996632;28;20677;-86
2022/10/09 11:13:27;;;;;;;7.73;2.90;;;14.00;77.40;;;;;;4996300;28;20197;-85
2022/10/09 11:16:24;;;;;;;11.30;2.43;;;13.80;79.00;;;;;;4997572;28;20209;-86
2022/10/09 11:18:56;;;;;;;13.37;2.47;;;13.80;78.60;;;;;;4996493;28;20173;-86
2022/10/09 11:21:44;;;;;;;14.80;2.93;;;14.00;77.80;;;;;;4997847;28;20583;-86
2022/10/09 11:24:28;;;;;;;11.73;2.80;;;14.30;77.90;;;;;;4996029;28;20248;-85
2022/10/09 11:27:05;;;;;;;11.40;2.43;;;13.90;77.60;;;;;;4996479;28;20256;-86
2022/10/09 11:29:44;;;;;;;8.13;2.40;;;14.20;76.90;;;;;;4994797;28;20178;-85
2022/10/09 11:32:17;;;;;;;7.33;2.37;;;14.40;76.60;;;;;;4996059;28;20174;-86
2022/10/09 11:34:53;;;;;;;8.50;2.17;;;14.30;77.20;;;;;;4997130;28;20691;-85
2022/10/09 11:37:28;;;;;;;12.93;2.23;;;14.60;76.70;;;;;;4996448;28;20609;-85
2022/10/09 11:39:55;;;;;;;16.02;2.08;;;14.80;74.90;;;;;;4997099;28;20154;-86
2022/10/09 11:42:23;;;;;;;8.17;2.10;;;14.90;74.70;;;;;;4995551;28;20556;-85
2022/10/09 11:45:01;;;;;;;9.13;1.88;;;14.90;74.20;;;;;;4995312;28;20221;-86
2022/10/09 11:47:49;;;;;;;8.30;1.73;;;15.20;75.40;;;;;;4995033;28;20570;-85
2022/10/09 11:50:33;;;;;;;7.63;2.25;;;15.20;73.70;;;;;;4994985;28;20170;-86
2022/10/09 11:52:59;;;;;;;15.65;2.67;;;15.20;72.40;;;;;;4995651;28;20233;-88
2022/10/09 11:55:28;;;;;;;6.47;1.70;;;15.20;72.60;;;;;;4994520;28;20206;-86
2022/10/09 11:57:54;;;;;;;12.00;2.60;;;14.90;73.60;;;;;;4995935;28;20198;-87
2022/10/09 12:00:31;;;;;;;11.57;2.33;;;14.80;74.30;;;;;;4994679;28;20170;-86
2022/10/09 12:03:00;;;;;;;9.43;2.13;;;15.30;74.00;;;;;;4994969;28;20177;-87
2022/10/09 12:05:38;;;;;;;12.50;2.05;;;15.40;73.00;;;;;;4994796;28;20213;-86
2022/10/09 12:08:17;;;;;;;8.07;1.95;;;15.20;71.00;;;;;;4995735;28;20161;-87
2022/10/09 12:10:58;;;;;;;10.73;2.05;;;14.90;72.30;;;;;;4994607;28;20192;-88
2022/10/09 12:13:36;;;;;;;7.50;1.75;;;15.10;73.10;;;;;;4995925;28;20257;-88
2022/10/09 12:16:01;;;;;;;6.32;1.92;;;15.40;73.70;;;;;;4995636;28;20551;-87
2022/10/09 12:18:43;;;;;;;9.73;2.35;;;15.50;70.80;;;;;;4994320;28;20189;-88
2022/10/09 12:21:23;;;;;;;8.00;1.90;;;15.80;71.40;;;;;;4995033;28;20229;-85
2022/10/09 12:23:50;;;;;;;14.13;2.47;;;15.30;70.60;;;;;;4995229;28;20227;-85
2022/10/09 12:26:16;;;;;;;7.53;2.05;;;15.10;70.40;;;;;;4996142;28;20182;-85
2022/10/09 12:28:55;;;;;;;5.28;1.55;;;15.10;70.90;;;;;;4995645;28;20658;-85
2022/10/09 12:31:31;;;;;;;7.47;1.80;;;15.40;71.50;;;;;;4996634;28;20691;-86
2022/10/09 12:34:11;;;;;;;6.95;1.85;;;15.60;69.30;;;;;;4994619;28;20235;-85
2022/10/09 12:36:36;;;;;;;10.70;1.85;;;15.60;69.30;;;;;;4995328;28;20317;-85
2022/10/09 12:39:19;;;;;;;7.32;2.10;;;15.60;69.00;;;;;;4995317;28;20276;-86
2022/10/09 12:41:47;;;;;;;3.83;1.50;;;15.90;69.20;;;;;;4995758;28;20737;-85
2022/10/09 12:44:40;;;;;;;9.38;1.80;;;16.00;68.20;;;;;;4994681;28;20201;-86
2022/10/09 12:47:08;;;;;;;10.20;2.33;;;16.20;67.50;;;;;;4995253;28;20237;-85
2022/10/09 12:49:34;;;;;;;10.65;2.20;;;16.00;68.20;;;;;;4995127;28;20324;-85
2022/10/09 12:52:00;;;;;;;10.13;2.22;;;15.80;67.60;;;;;;4994988;28;20227;-85
2022/10/09 12:54:29;;;;;;;8.43;2.20;;;15.30;68.30;;;;;;4994748;28;20694;-85
2022/10/09 12:56:57;;;;;;;13.32;2.47;;;15.60;69.20;;;;;;4993968;28;20178;-86
2022/10/09 12:59:26;;;;;;;8.70;2.40;;;15.70;67.60;;;;;;4993797;28;20220;-86
2022/10/09 13:01:56;;;;;;;11.80;2.42;;;16.20;67.60;;;;;;4995354;28;20178;-86